Decoded Metar for KBWW ( in ) (IATA:) | Meteo·Mobile Aviation Weather
aviador You're here:

KBWW Decoded Metar

in
Report Time2019-01-20 10:55:00
UTC Time2019-01-20 11:04:01
Flight Rules vfr VFR
Wind150° at 06 kt
W.Decomp.*RWY 13: 5.6 kt HW 2.1 kt RCW
W.Rank150° ranks 7
Current wind is below 150° avg. (12.2)
Visibility9999 m
Phenomena:N/A
Clouds:Scattered 085 Hf
Expected CloudBase > 400 ft AGL from Temp-Dew spread
CeilingNone
Temp-14°C
Dew Point-15°C (92% RH)
AAT-19.5°C
QNH1011 hPa
Raw Report
METAR KBWW 201055Z AUTO 15006KT 10SM SCT085 M14/M15 A2985 RMK AO2=

Extra information for KBWW:More info

Social comments